BENVENUTI AL 154° GRUPPO VIRTUALE

Error

reCAPTCHA plugin needs a site key to be set in its parameters. Please contact a site administrator.

Please enter the email address for your account. A verification code will be sent to you. Once you have received the verification code, you will be able to choose a new password for your account.

(optional)

METAR & TAF

[Source: ADDS]
METAR
LIPL 231003Z 27005KT 7000 SCT020 21/15 Q1010 RMK SCT VIS MIN 7000 WIND THR31 27007KT WIND THR13 27005KT WHT =
LIPL 230800Z 2309/2318 VRB03KT 5000 BR FEW030 SCT060 TEMPO 2309/2310 3500 BR SCT030 SCT050 BECMG 2311/2313 9999 SCT080
TAF
LIPL 230800Z 2309/2318 VRB03KT 5000 BR FEW030 SCT060 TEMPO 2309/2310 3500 BR SCT030 SCT050 BECMG 2311/2313 9999 SCT080 =

Notice: Undefined index: sun in /web/htdocs/www.154gruppovirtuale.it/home/modules/mod_wx/tmpl/default.php on line 13

Link utili

 
 
 

Network

Simulation Platform